createdAt,value
2022-10-09T00:01:17.184Z,1.00
2022-10-09T00:03:47.116Z,1.00
2022-10-09T00:06:17.666Z,1.00
2022-10-09T00:08:45.868Z,1.00
2022-10-09T00:11:16.483Z,1.00
2022-10-09T00:13:45.023Z,1.00
2022-10-09T00:16:16.144Z,1.00
2022-10-09T00:18:46.116Z,1.00
2022-10-09T00:21:20.547Z,1.00
2022-10-09T00:23:48.932Z,1.00
2022-10-09T00:26:17.269Z,1.00
2022-10-09T00:28:45.692Z,1.00
2022-10-09T00:31:16.507Z,1.00
2022-10-09T00:33:45.121Z,1.00
2022-10-09T00:36:14.912Z,1.00
2022-10-09T00:38:43.340Z,1.00
2022-10-09T00:41:16.113Z,1.00
2022-10-09T00:43:47.654Z,1.00
2022-10-09T00:46:33.549Z,1.00
2022-10-09T00:49:16.206Z,99.90
2022-10-09T00:51:46.593Z,99.90
2022-10-09T00:54:17.260Z,99.90
2022-10-09T00:56:45.399Z,99.90
2022-10-09T00:59:14.548Z,99.90
2022-10-09T01:01:44.055Z,99.90
2022-10-09T01:04:12.603Z,99.90
2022-10-09T01:07:04.598Z,99.90
2022-10-09T01:09:42.073Z,99.90
2022-10-09T01:12:17.014Z,99.90
2022-10-09T01:14:50.838Z,99.90
2022-10-09T01:17:25.997Z,99.90
2022-10-09T01:20:24.369Z,99.90
2022-10-09T01:23:09.816Z,99.90
2022-10-09T01:25:47.718Z,99.90
2022-10-09T01:28:19.593Z,99.90
2022-10-09T01:30:48.499Z,99.90
2022-10-09T01:33:17.611Z,99.90
2022-10-09T01:35:47.777Z,99.90
2022-10-09T01:38:17.777Z,99.90
2022-10-09T01:40:45.906Z,99.90
2022-10-09T01:43:14.153Z,99.90
2022-10-09T01:45:46.243Z,99.90
2022-10-09T01:48:19.063Z,99.90
2022-10-09T01:50:51.522Z,99.90
2022-10-09T01:53:21.586Z,99.90
2022-10-09T01:55:55.961Z,99.90
2022-10-09T01:58:29.633Z,99.90
2022-10-09T02:01:05.887Z,99.90
2022-10-09T02:03:36.948Z,96.30
2022-10-09T02:06:06.563Z,99.90
2022-10-09T02:08:37.476Z,99.90
2022-10-09T02:11:06.552Z,99.90
2022-10-09T02:13:36.370Z,99.90
2022-10-09T02:16:14.027Z,99.90
2022-10-09T02:18:45.416Z,99.90
2022-10-09T02:21:16.995Z,99.90
2022-10-09T02:23:46.288Z,99.90
2022-10-09T02:26:15.336Z,91.80
2022-10-09T02:28:46.019Z,93.20
2022-10-09T02:31:24.075Z,99.90
2022-10-09T02:33:56.847Z,54.50
2022-10-09T02:36:25.172Z,86.40
2022-10-09T02:38:53.426Z,76.10
2022-10-09T02:41:21.623Z,92.10
2022-10-09T02:43:49.830Z,79.10
2022-10-09T02:46:19.919Z,66.80
2022-10-09T02:48:48.160Z,75.10
2022-10-09T02:51:16.236Z,91.20
2022-10-09T02:53:44.595Z,64.60
2022-10-09T02:56:12.741Z,43.70
2022-10-09T02:58:41.264Z,1.00
2022-10-09T03:01:09.451Z,1.00
2022-10-09T03:03:39.104Z,1.00
2022-10-09T03:06:10.452Z,1.00
2022-10-09T03:08:40.193Z,1.00
2022-10-09T03:11:08.291Z,1.00
2022-10-09T03:13:36.501Z,1.00
2022-10-09T03:16:05.299Z,1.00
2022-10-09T03:18:33.400Z,1.00
2022-10-09T03:21:06.068Z,1.00
2022-10-09T03:23:34.160Z,1.00
2022-10-09T03:26:04.894Z,1.00
2022-10-09T03:28:33.403Z,1.00
2022-10-09T03:31:01.463Z,99.90
2022-10-09T03:33:29.510Z,99.90
2022-10-09T03:35:57.621Z,99.90
2022-10-09T03:38:27.240Z,99.90
2022-10-09T03:40:55.644Z,99.90
2022-10-09T03:43:23.672Z,99.90
2022-10-09T03:45:51.941Z,99.90
2022-10-09T03:48:19.960Z,99.90
2022-10-09T03:50:48.831Z,96.90
2022-10-09T03:53:17.584Z,97.20
2022-10-09T03:55:47.116Z,91.30
2022-10-09T03:58:15.169Z,44.70
2022-10-09T04:00:45.384Z,1.00
2022-10-09T04:03:13.484Z,1.00
2022-10-09T04:05:41.576Z,1.00
2022-10-09T04:08:09.579Z,1.00
2022-10-09T04:10:37.961Z,1.00
2022-10-09T04:13:07.524Z,1.00
2022-10-09T04:15:36.770Z,1.00
2022-10-09T04:18:05.338Z,1.00
2022-10-09T04:20:33.551Z,1.00
2022-10-09T04:23:01.576Z,1.00
2022-10-09T04:25:29.600Z,1.00
2022-10-09T04:27:57.657Z,1.00
2022-10-09T04:30:27.076Z,1.00
2022-10-09T04:32:55.066Z,1.00
2022-10-09T04:35:23.153Z,1.00
2022-10-09T04:37:51.260Z,1.00
2022-10-09T04:40:19.314Z,1.00
2022-10-09T04:42:47.684Z,1.00
2022-10-09T04:45:16.068Z,1.00
2022-10-09T04:47:45.449Z,1.00
2022-10-09T04:50:15.044Z,1.00
2022-10-09T04:52:43.065Z,1.00
2022-10-09T04:55:11.420Z,1.00
2022-10-09T04:57:39.537Z,1.00
2022-10-09T05:00:08.814Z,1.00
2022-10-09T05:02:36.982Z,1.00
2022-10-09T05:05:07.169Z,1.00
2022-10-09T05:07:35.341Z,1.00
2022-10-09T05:10:03.491Z,1.00
2022-10-09T05:12:31.699Z,1.00
2022-10-09T05:14:59.829Z,1.00
2022-10-09T05:17:28.086Z,1.00
2022-10-09T05:19:56.257Z,1.00
2022-10-09T05:22:25.919Z,1.00
2022-10-09T05:24:54.086Z,1.00
2022-10-09T05:27:22.234Z,1.00
2022-10-09T05:29:50.357Z,1.00
2022-10-09T05:32:18.575Z,1.00
2022-10-09T05:34:46.717Z,1.00
2022-10-09T05:37:14.824Z,1.00
2022-10-09T05:39:45.151Z,1.00
2022-10-09T05:42:13.358Z,1.00
2022-10-09T05:44:41.498Z,1.00
2022-10-09T05:47:09.654Z,1.00
2022-10-09T05:49:37.798Z,1.00
2022-10-09T05:52:05.937Z,1.00
2022-10-09T05:54:34.074Z,1.00
2022-10-09T05:57:04.634Z,1.00
2022-10-09T05:59:32.666Z,1.00
2022-10-09T06:02:00.853Z,1.00
2022-10-09T06:04:29.262Z,1.00
2022-10-09T06:06:57.368Z,1.00
2022-10-09T06:09:26.329Z,1.00
2022-10-09T06:11:55.747Z,1.00
2022-10-09T06:14:26.191Z,1.00
2022-10-09T06:16:54.483Z,1.00
2022-10-09T06:19:23.000Z,1.00
2022-10-09T06:21:51.946Z,1.00
2022-10-09T06:24:27.237Z,1.00
2022-10-09T06:26:56.781Z,1.00
2022-10-09T06:29:26.369Z,1.00
2022-10-09T06:31:54.548Z,1.00
2022-10-09T06:34:22.724Z,1.00
2022-10-09T06:36:50.951Z,1.00
2022-10-09T06:39:19.405Z,1.00
2022-10-09T06:41:47.578Z,1.00
2022-10-09T06:44:17.370Z,1.00
2022-10-09T06:46:50.860Z,1.00
2022-10-09T06:49:19.018Z,1.00
2022-10-09T06:51:47.224Z,1.00
2022-10-09T06:54:17.363Z,1.00
2022-10-09T06:56:45.700Z,1.00
2022-10-09T06:59:14.311Z,1.00
2022-10-09T07:01:42.655Z,1.00
2022-10-09T07:04:14.314Z,1.00
2022-10-09T07:06:44.330Z,1.00
2022-10-09T07:09:13.909Z,1.00
2022-10-09T07:11:44.416Z,1.00
2022-10-09T07:14:14.166Z,1.00
2022-10-09T07:16:44.543Z,1.00
2022-10-09T07:19:15.952Z,1.00
2022-10-09T07:21:45.782Z,1.00
2022-10-09T07:24:14.478Z,1.00
2022-10-09T07:26:45.835Z,1.00
2022-10-09T07:29:17.001Z,1.00
2022-10-09T07:31:45.296Z,1.00
2022-10-09T07:34:14.953Z,1.00
2022-10-09T07:36:43.616Z,99.90
2022-10-09T07:39:11.757Z,99.90
2022-10-09T07:41:40.049Z,99.90
2022-10-09T07:44:08.186Z,99.90
2022-10-09T07:46:36.523Z,99.90
2022-10-09T07:49:05.687Z,99.90
2022-10-09T07:51:35.298Z,99.90
2022-10-09T07:54:04.152Z,99.90
2022-10-09T07:56:34.123Z,99.90
2022-10-09T07:59:03.841Z,99.90
2022-10-09T08:01:34.110Z,99.90
2022-10-09T08:04:03.103Z,99.90
2022-10-09T08:06:32.096Z,99.90
2022-10-09T08:09:02.668Z,99.90
2022-10-09T08:11:31.774Z,99.90
2022-10-09T08:14:00.108Z,99.90
2022-10-09T08:16:29.201Z,99.90
2022-10-09T08:18:58.478Z,99.90
2022-10-09T08:21:27.992Z,99.90
2022-10-09T08:23:57.379Z,99.90
2022-10-09T08:26:28.848Z,99.90
2022-10-09T08:28:58.830Z,99.90
2022-10-09T08:31:27.574Z,99.90
2022-10-09T08:33:56.814Z,99.90
2022-10-09T08:36:25.393Z,99.90
2022-10-09T08:38:53.572Z,99.90
2022-10-09T08:41:33.796Z,99.90
2022-10-09T08:44:05.922Z,99.90
2022-10-09T08:46:46.981Z,99.90
2022-10-09T08:49:23.517Z,99.90
2022-10-09T08:51:52.370Z,99.90
2022-10-09T08:54:27.530Z,99.90
2022-10-09T08:56:57.252Z,99.90
2022-10-09T08:59:25.336Z,99.90
2022-10-09T09:02:03.776Z,99.90
2022-10-09T09:05:02.635Z,99.90
2022-10-09T09:07:38.756Z,99.90
2022-10-09T09:10:15.353Z,99.90
2022-10-09T09:12:52.042Z,99.90
2022-10-09T09:15:44.912Z,99.90
2022-10-09T09:18:30.883Z,99.90
2022-10-09T09:21:05.701Z,99.90
2022-10-09T09:23:40.232Z,99.90
2022-10-09T09:26:14.453Z,99.90
2022-10-09T09:28:45.762Z,99.90
2022-10-09T09:31:18.563Z,99.90
2022-10-09T09:33:54.325Z,99.90
2022-10-09T09:36:26.136Z,99.90
2022-10-09T09:39:44.229Z,99.90
2022-10-09T09:41:45.228Z,99.90
2022-10-09T09:44:17.725Z,99.90
2022-10-09T09:46:48.788Z,99.90
2022-10-09T09:49:18.721Z,99.90
2022-10-09T09:51:48.266Z,99.90
2022-10-09T09:54:20.492Z,99.90
2022-10-09T09:59:41.378Z,99.90
2022-10-09T10:02:14.514Z,99.90
2022-10-09T10:04:52.023Z,99.90
2022-10-09T10:07:33.917Z,99.90
2022-10-09T10:10:15.503Z,99.90
2022-10-09T10:12:46.222Z,99.90
2022-10-09T10:15:22.006Z,99.90
2022-10-09T10:17:57.101Z,99.90
2022-10-09T10:20:25.632Z,99.90
2022-10-09T10:22:56.856Z,99.90
2022-10-09T10:25:28.517Z,99.90
2022-10-09T10:28:02.046Z,99.90
2022-10-09T10:30:32.236Z,99.90
2022-10-09T10:33:05.182Z,99.90
2022-10-09T10:35:36.803Z,99.90
2022-10-09T10:38:13.386Z,99.90
2022-10-09T10:40:46.830Z,99.90
2022-10-09T10:43:30.957Z,99.90
2022-10-09T10:46:08.126Z,99.90
2022-10-09T10:48:41.327Z,99.90
2022-10-09T10:51:26.334Z,99.90
2022-10-09T10:54:09.549Z,99.90
2022-10-09T10:56:41.853Z,99.90
2022-10-09T10:59:33.244Z,99.90
2022-10-09T11:02:26.393Z,99.90
2022-10-09T11:04:59.101Z,99.90
2022-10-09T11:07:35.071Z,99.90
2022-10-09T11:10:12.889Z,99.90
2022-10-09T11:12:49.517Z,99.90
2022-10-09T11:15:30.867Z,99.90
2022-10-09T11:18:17.231Z,99.90
2022-10-09T11:20:59.060Z,99.90
2022-10-09T11:23:44.688Z,90.10
2022-10-09T11:26:23.258Z,88.70
2022-10-09T11:28:56.575Z,85.70
2022-10-09T11:31:30.612Z,81.60
2022-10-09T11:34:05.379Z,75.50
2022-10-09T11:36:38.728Z,61.80
2022-10-09T11:39:12.006Z,67.50
2022-10-09T11:41:41.176Z,64.80
2022-10-09T11:44:28.608Z,72.10
2022-10-09T11:47:09.428Z,71.20
2022-10-09T11:49:50.068Z,78.50
2022-10-09T11:52:26.407Z,76.50
2022-10-09T11:54:54.642Z,75.40
2022-10-09T11:57:29.806Z,72.20
2022-10-09T12:00:07.646Z,74.50
2022-10-09T12:02:37.352Z,75.90
2022-10-09T12:05:20.246Z,75.70
2022-10-09T12:07:48.471Z,76.00
2022-10-09T12:10:28.436Z,77.60
2022-10-09T12:13:03.055Z,79.30
2022-10-09T12:15:40.511Z,76.30
2022-10-09T12:18:23.183Z,73.50
2022-10-09T12:20:54.294Z,75.80
2022-10-09T12:23:27.949Z,77.30
2022-10-09T12:25:57.714Z,76.10
2022-10-09T12:28:30.645Z,72.20
2022-10-09T12:31:01.500Z,71.00
2022-10-09T12:33:35.659Z,69.60
2022-10-09T12:36:12.134Z,65.60
2022-10-09T12:38:40.266Z,66.70
2022-10-09T12:41:20.049Z,72.80
2022-10-09T12:43:49.538Z,68.80
2022-10-09T12:46:27.780Z,68.30
2022-10-09T12:48:56.041Z,68.80
2022-10-09T12:51:28.248Z,64.70
2022-10-09T12:53:56.934Z,63.80
2022-10-09T12:56:29.448Z,67.20
2022-10-09T12:58:59.632Z,71.40
2022-10-09T13:01:28.384Z,66.20
2022-10-09T13:03:58.035Z,68.60
2022-10-09T13:06:29.017Z,69.90
2022-10-09T13:09:00.474Z,75.00
2022-10-09T13:11:34.241Z,70.10
2022-10-09T13:14:02.887Z,72.70
2022-10-09T13:16:41.015Z,71.40
2022-10-09T13:19:23.500Z,73.30
2022-10-09T13:22:16.183Z,72.00
2022-10-09T13:24:44.327Z,72.10
2022-10-09T13:27:14.597Z,65.20
2022-10-09T13:29:43.608Z,62.70
2022-10-09T13:32:14.183Z,64.50
2022-10-09T13:34:42.367Z,88.40
2022-10-09T13:37:13.948Z,69.40
2022-10-09T13:39:42.248Z,70.50
2022-10-09T13:42:13.766Z,74.00
2022-10-09T13:44:41.898Z,76.80
2022-10-09T13:47:11.072Z,77.00
2022-10-09T13:49:39.165Z,74.80
2022-10-09T13:52:07.288Z,70.00
2022-10-09T13:54:37.096Z,70.80
2022-10-09T13:57:05.371Z,66.90
2022-10-09T13:59:33.579Z,64.30
2022-10-09T14:02:02.101Z,66.40
2022-10-09T14:04:30.800Z,71.40
2022-10-09T14:06:58.832Z,71.90
2022-10-09T14:09:26.947Z,70.30
2022-10-09T14:11:56.447Z,70.00
2022-10-09T14:14:24.593Z,67.60
2022-10-09T14:16:52.594Z,69.60
2022-10-09T14:19:20.674Z,68.90
2022-10-09T14:21:48.755Z,69.40
2022-10-09T14:24:18.568Z,71.50
2022-10-09T14:26:51.377Z,72.70
2022-10-09T14:29:21.434Z,72.00
2022-10-09T14:31:51.335Z,70.30
2022-10-09T14:34:19.601Z,70.20
2022-10-09T14:36:47.856Z,66.80
2022-10-09T14:39:16.209Z,67.70
2022-10-09T14:41:44.455Z,68.00
2022-10-09T14:44:12.644Z,69.40
2022-10-09T14:46:42.104Z,72.40
2022-10-09T14:49:11.537Z,71.10
2022-10-09T14:51:41.385Z,68.10
2022-10-09T14:54:10.491Z,67.20
2022-10-09T14:56:38.728Z,69.70
2022-10-09T14:59:07.360Z,71.50
2022-10-09T15:01:36.371Z,68.00
2022-10-09T15:04:06.951Z,73.90
2022-10-09T15:06:35.700Z,72.50
2022-10-09T15:09:06.302Z,72.10
2022-10-09T15:11:36.055Z,70.90
2022-10-09T15:14:04.898Z,71.10
2022-10-09T15:16:33.214Z,70.10
2022-10-09T15:19:01.380Z,68.30
2022-10-09T15:21:34.764Z,69.20
2022-10-09T15:24:04.420Z,69.40
2022-10-09T15:26:35.670Z,66.90
2022-10-09T15:29:05.515Z,68.40
2022-10-09T15:31:37.873Z,69.60
2022-10-09T15:34:07.684Z,68.20
2022-10-09T15:36:43.091Z,71.40
2022-10-09T15:39:11.487Z,73.20
2022-10-09T15:41:41.791Z,75.90
2022-10-09T15:44:15.402Z,75.80
2022-10-09T15:46:43.428Z,79.00
2022-10-09T15:49:11.570Z,77.80
2022-10-09T15:51:41.257Z,93.50
2022-10-09T15:54:09.403Z,82.20
2022-10-09T15:56:39.924Z,82.90
2022-10-09T15:59:11.650Z,83.20
2022-10-09T16:01:39.797Z,84.40
2022-10-09T16:04:07.937Z,82.40
2022-10-09T16:06:36.277Z,81.40
2022-10-09T16:09:05.876Z,84.30
2022-10-09T16:11:34.664Z,84.60
2022-10-09T16:14:02.827Z,86.30
2022-10-09T16:16:30.916Z,84.30
2022-10-09T16:19:00.770Z,89.30
2022-10-09T16:21:30.052Z,90.30
2022-10-09T16:23:59.840Z,91.30
2022-10-09T16:26:30.490Z,91.50
2022-10-09T16:29:00.710Z,91.80
2022-10-09T16:31:31.297Z,93.40
2022-10-09T16:33:59.707Z,94.20
2022-10-09T16:36:28.625Z,94.60
2022-10-09T16:38:57.902Z,96.80
2022-10-09T16:41:27.294Z,98.00
2022-10-09T16:44:00.509Z,98.70
2022-10-09T16:49:05.771Z,99.90
2022-10-09T16:51:35.866Z,99.90
2022-10-09T16:54:06.037Z,99.90
2022-10-09T16:56:36.745Z,99.90
2022-10-09T16:59:09.355Z,99.90
2022-10-09T17:01:40.259Z,99.90
2022-10-09T17:04:08.301Z,99.90
2022-10-09T17:06:36.588Z,99.90
2022-10-09T17:09:13.282Z,99.90
2022-10-09T17:11:42.300Z,99.90
2022-10-09T17:14:12.139Z,99.90
2022-10-09T17:16:42.135Z,99.90
2022-10-09T17:19:10.596Z,99.90
2022-10-09T17:21:38.998Z,99.90
2022-10-09T17:24:07.858Z,99.90
2022-10-09T17:26:36.559Z,99.90
2022-10-09T17:29:04.894Z,99.90
2022-10-09T17:31:35.099Z,99.90
2022-10-09T17:34:05.172Z,99.90
2022-10-09T17:36:35.664Z,99.90
2022-10-09T17:39:04.183Z,99.90
2022-10-09T17:41:33.167Z,99.90
2022-10-09T17:44:01.782Z,99.90
2022-10-09T17:46:30.526Z,99.90
2022-10-09T17:49:01.057Z,99.90
2022-10-09T17:51:31.256Z,99.90
2022-10-09T17:54:01.815Z,99.90
2022-10-09T17:56:31.507Z,99.90
2022-10-09T17:59:00.457Z,99.90
2022-10-09T18:01:28.861Z,99.90
2022-10-09T18:03:57.385Z,99.90
2022-10-09T18:06:27.807Z,99.90
2022-10-09T18:08:57.964Z,99.90
2022-10-09T18:11:27.385Z,99.90
2022-10-09T18:13:55.778Z,99.90
2022-10-09T18:16:35.352Z,99.90
2022-10-09T18:19:04.850Z,99.90
2022-10-09T18:21:35.362Z,99.90
2022-10-09T18:24:03.620Z,99.90
2022-10-09T18:26:31.720Z,99.90
2022-10-09T18:29:00.396Z,99.90
2022-10-09T18:31:29.670Z,99.90
2022-10-09T18:33:58.823Z,99.90
2022-10-09T18:36:31.486Z,99.90
2022-10-09T18:39:04.430Z,99.90
2022-10-09T18:41:32.598Z,99.90
2022-10-09T18:44:01.485Z,99.90
2022-10-09T18:46:35.605Z,99.90
2022-10-09T18:49:04.169Z,99.90
2022-10-09T18:51:32.821Z,99.90
2022-10-09T18:54:08.118Z,99.90
2022-10-09T18:56:37.380Z,99.90
2022-10-09T18:59:07.635Z,99.90
2022-10-09T19:01:37.872Z,99.90
2022-10-09T19:04:06.113Z,99.90
2022-10-09T19:06:34.257Z,99.90
2022-10-09T19:09:04.352Z,99.90
2022-10-09T19:11:35.515Z,99.90
2022-10-09T19:14:04.015Z,99.90
2022-10-09T19:16:35.312Z,99.90
2022-10-09T19:19:04.292Z,99.90
2022-10-09T19:21:32.446Z,99.90
2022-10-09T19:24:03.475Z,99.90
2022-10-09T19:26:35.520Z,99.90
2022-10-09T19:29:05.027Z,99.90
2022-10-09T19:31:33.792Z,99.90
2022-10-09T19:34:02.968Z,99.90
2022-10-09T19:36:33.277Z,99.90
2022-10-09T19:39:01.656Z,99.90
2022-10-09T19:41:29.934Z,99.90
2022-10-09T19:43:59.682Z,99.90
2022-10-09T19:46:28.879Z,99.90
2022-10-09T19:48:57.318Z,99.90
2022-10-09T19:51:26.924Z,99.90
2022-10-09T19:53:55.454Z,99.90
2022-10-09T19:56:28.840Z,99.90
2022-10-09T19:58:59.231Z,99.90
2022-10-09T20:01:28.263Z,99.90
2022-10-09T20:03:57.625Z,99.90
2022-10-09T20:06:26.234Z,99.90
2022-10-09T20:08:54.865Z,99.90
2022-10-09T20:11:23.281Z,99.90
2022-10-09T20:13:55.769Z,99.90
2022-10-09T20:16:27.895Z,99.90
2022-10-09T20:18:56.515Z,99.90
2022-10-09T20:21:24.570Z,99.90
2022-10-09T20:23:53.184Z,99.90
2022-10-09T20:26:22.923Z,99.90
2022-10-09T20:28:53.790Z,99.90
2022-10-09T20:31:24.227Z,99.90
2022-10-09T20:33:55.114Z,99.90
2022-10-09T20:36:26.091Z,99.90
2022-10-09T20:38:56.564Z,99.90
2022-10-09T20:41:24.901Z,99.90
2022-10-09T20:43:53.441Z,99.90
2022-10-09T20:46:23.705Z,99.90
2022-10-09T20:48:53.671Z,99.90
2022-10-09T20:51:22.473Z,99.90
2022-10-09T20:53:55.867Z,99.90
2022-10-09T20:56:25.789Z,99.90
2022-10-09T20:58:54.667Z,99.90
2022-10-09T21:01:22.942Z,99.90
2022-10-09T21:03:51.484Z,99.90
2022-10-09T21:06:22.188Z,99.90
2022-10-09T21:08:50.455Z,99.90
2022-10-09T21:11:19.555Z,99.90
2022-10-09T21:13:49.357Z,99.90
2022-10-09T21:16:22.549Z,99.90
2022-10-09T21:18:55.372Z,99.90
2022-10-09T21:21:25.167Z,99.90
2022-10-09T21:23:55.197Z,99.90
2022-10-09T21:26:24.700Z,99.90
2022-10-09T21:28:58.258Z,99.90
2022-10-09T21:31:28.825Z,99.90
2022-10-09T21:33:57.808Z,99.90
2022-10-09T21:36:33.191Z,99.90
2022-10-09T21:39:01.296Z,99.90
2022-10-09T21:41:29.646Z,99.90
2022-10-09T21:43:57.746Z,99.90
2022-10-09T21:46:25.792Z,99.90
2022-10-09T21:48:53.891Z,99.90
2022-10-09T21:51:22.185Z,99.90
2022-10-09T21:53:51.751Z,99.90
2022-10-09T21:56:19.740Z,99.90
2022-10-09T21:58:49.182Z,99.90
2022-10-09T22:01:17.510Z,99.90
2022-10-09T22:03:47.072Z,99.90
2022-10-09T22:06:19.156Z,99.90
2022-10-09T22:08:48.060Z,99.90
2022-10-09T22:11:18.495Z,99.90
2022-10-09T22:13:46.554Z,99.90
2022-10-09T22:16:16.513Z,99.90
2022-10-09T22:18:44.690Z,99.90
2022-10-09T22:21:14.894Z,99.90
2022-10-09T22:23:43.547Z,99.90
2022-10-09T22:26:14.237Z,99.90
2022-10-09T22:28:43.838Z,99.90
2022-10-09T22:31:15.590Z,1.00
2022-10-09T22:33:44.487Z,1.00
2022-10-09T22:36:14.342Z,1.00
2022-10-09T22:38:43.274Z,1.00
2022-10-09T22:41:13.947Z,1.00
2022-10-09T22:43:45.321Z,1.00
2022-10-09T22:46:15.951Z,1.00
2022-10-09T22:48:44.425Z,1.00
2022-10-09T22:51:14.791Z,1.00
2022-10-09T22:53:43.671Z,1.00
2022-10-09T22:56:14.961Z,1.00
2022-10-09T22:58:44.622Z,1.00
2022-10-09T23:01:16.069Z,1.00
2022-10-09T23:03:44.483Z,1.00
2022-10-09T23:06:15.006Z,1.00
2022-10-09T23:08:45.417Z,1.00
2022-10-09T23:11:14.022Z,1.00
2022-10-09T23:13:42.096Z,1.00
2022-10-09T23:16:13.141Z,1.00
2022-10-09T23:18:42.156Z,1.00
2022-10-09T23:21:12.659Z,1.00
2022-10-09T23:23:41.146Z,1.00
2022-10-09T23:26:11.114Z,1.00
2022-10-09T23:28:39.874Z,1.00
2022-10-09T23:31:10.014Z,1.00
2022-10-09T23:33:41.149Z,1.00
2022-10-09T23:36:10.731Z,1.00
2022-10-09T23:38:39.651Z,1.00
2022-10-09T23:41:09.956Z,1.00
2022-10-09T23:43:39.810Z,1.00
2022-10-09T23:46:11.405Z,1.00
2022-10-09T23:48:40.826Z,1.00
2022-10-09T23:51:09.132Z,1.00
2022-10-09T23:53:37.419Z,1.00
2022-10-09T23:56:07.822Z,1.00
2022-10-09T23:58:35.835Z,1.00
